createdAt,value
2023-04-24T00:02:12.163Z,68.70
2023-04-24T00:04:42.760Z,68.30
2023-04-24T00:07:10.989Z,68.50
2023-04-24T00:09:38.058Z,68.10
2023-04-24T00:12:05.668Z,67.90
2023-04-24T00:14:32.972Z,67.80
2023-04-24T00:17:00.076Z,67.40
2023-04-24T00:19:27.040Z,67.30
2023-04-24T00:21:54.950Z,67.20
2023-04-24T00:24:22.339Z,66.80
2023-04-24T00:26:49.458Z,67.40
2023-04-24T00:29:16.309Z,66.70
2023-04-24T00:31:43.221Z,66.90
2023-04-24T00:34:10.176Z,66.90
2023-04-24T00:36:37.061Z,67.10
2023-04-24T00:39:04.275Z,66.70
2023-04-24T00:41:31.556Z,67.10
2023-04-24T00:43:58.368Z,67.70
2023-04-24T00:46:25.450Z,67.70
2023-04-24T00:48:52.692Z,68.40
2023-04-24T00:51:19.738Z,68.30
2023-04-24T00:53:47.783Z,68.10
2023-04-24T00:56:14.975Z,68.00
2023-04-24T00:58:43.008Z,67.80
2023-04-24T01:01:13.956Z,67.30
2023-04-24T01:03:41.965Z,67.30
2023-04-24T01:06:10.426Z,67.40
2023-04-24T01:08:38.071Z,67.30
2023-04-24T01:11:06.166Z,67.00
2023-04-24T01:13:34.297Z,67.00
2023-04-24T01:16:02.060Z,66.80
2023-04-24T01:18:29.582Z,66.70
2023-04-24T01:20:59.648Z,66.20
2023-04-24T01:23:27.749Z,66.40
2023-04-24T01:25:54.784Z,66.30
2023-04-24T01:28:22.084Z,66.30
2023-04-24T01:30:49.568Z,66.80
2023-04-24T01:33:17.416Z,66.50
2023-04-24T01:35:44.697Z,66.50
2023-04-24T01:38:11.896Z,66.40
2023-04-24T01:40:39.158Z,66.50
2023-04-24T01:43:06.266Z,66.80
2023-04-24T01:45:33.359Z,67.00
2023-04-24T01:48:01.274Z,66.80
2023-04-24T01:50:28.217Z,66.70
2023-04-24T01:52:55.251Z,67.00
2023-04-24T01:55:22.194Z,67.10
2023-04-24T01:57:50.022Z,66.90
2023-04-24T02:00:17.053Z,67.00
2023-04-24T02:02:47.400Z,66.90
2023-04-24T02:05:15.365Z,66.90
2023-04-24T02:07:42.224Z,67.00
2023-04-24T02:10:09.707Z,67.00
2023-04-24T02:12:36.608Z,67.10
2023-04-24T02:15:03.932Z,66.80
2023-04-24T02:17:31.894Z,66.80
2023-04-24T02:19:58.818Z,67.00
2023-04-24T02:22:25.795Z,67.30
2023-04-24T02:24:52.730Z,67.50
2023-04-24T02:27:19.604Z,67.30
2023-04-24T02:29:46.421Z,67.50
2023-04-24T02:32:13.684Z,67.40
2023-04-24T02:34:40.851Z,67.10
2023-04-24T02:37:07.723Z,67.50
2023-04-24T02:39:34.637Z,67.60
2023-04-24T02:42:02.787Z,68.10
2023-04-24T02:44:29.680Z,68.40
2023-04-24T02:46:56.659Z,68.60
2023-04-24T02:49:23.693Z,68.50
2023-04-24T02:51:50.623Z,68.30
2023-04-24T02:54:17.699Z,68.70
2023-04-24T02:56:44.683Z,68.50
2023-04-24T02:59:11.716Z,68.50
2023-04-24T03:01:38.714Z,68.30
2023-04-24T03:04:05.843Z,68.10
2023-04-24T03:06:33.912Z,68.10
2023-04-24T03:09:00.900Z,68.20
2023-04-24T03:11:27.933Z,67.80
2023-04-24T03:13:54.769Z,67.90
2023-04-24T03:16:21.694Z,67.70
2023-04-24T03:18:48.613Z,68.00
2023-04-24T03:21:15.482Z,67.80
2023-04-24T03:23:42.364Z,68.00
2023-04-24T03:26:09.296Z,67.90
2023-04-24T03:28:36.180Z,67.80
2023-04-24T03:31:04.679Z,67.90
2023-04-24T03:33:31.588Z,68.00
2023-04-24T03:35:58.506Z,68.10
2023-04-24T03:38:25.523Z,67.90
2023-04-24T03:40:52.325Z,67.70
2023-04-24T03:43:19.181Z,67.60
2023-04-24T03:45:46.176Z,67.20
2023-04-24T03:48:13.121Z,67.30
2023-04-24T03:50:39.916Z,66.90
2023-04-24T03:53:06.875Z,65.70
2023-04-24T03:55:33.765Z,64.30
2023-04-24T03:58:00.798Z,63.70
2023-04-24T04:00:28.628Z,62.60
2023-04-24T04:02:56.298Z,62.60
2023-04-24T04:05:23.541Z,62.00
2023-04-24T04:07:50.591Z,61.20
2023-04-24T04:10:18.560Z,61.40
2023-04-24T04:12:45.942Z,60.70
2023-04-24T04:15:12.925Z,60.60
2023-04-24T04:17:39.830Z,60.40
2023-04-24T04:20:10.461Z,59.90
2023-04-24T04:22:37.907Z,60.90
2023-04-24T04:25:05.498Z,60.50
2023-04-24T04:27:33.466Z,59.60
2023-04-24T04:30:05.549Z,59.20
2023-04-24T04:32:34.299Z,60.30
2023-04-24T04:35:04.589Z,59.90
2023-04-24T04:37:32.414Z,59.40
2023-04-24T04:39:59.484Z,60.30
2023-04-24T04:42:27.952Z,59.30
2023-04-24T04:44:55.010Z,59.00
2023-04-24T04:47:25.837Z,57.80
2023-04-24T04:49:52.999Z,58.60
2023-04-24T04:52:20.506Z,56.50
2023-04-24T04:54:47.539Z,57.50
2023-04-24T04:57:14.485Z,57.80
2023-04-24T04:59:42.448Z,57.50
2023-04-24T05:02:10.892Z,56.50
2023-04-24T05:04:38.147Z,55.50
2023-04-24T05:07:05.202Z,55.60
2023-04-24T05:09:32.074Z,58.30
2023-04-24T05:11:58.955Z,58.00
2023-04-24T05:14:25.906Z,59.00
2023-04-24T05:16:52.866Z,58.60
2023-04-24T05:19:19.823Z,59.50
2023-04-24T05:21:46.702Z,60.10
2023-04-24T05:24:13.632Z,62.20
2023-04-24T05:26:40.460Z,63.70
2023-04-24T05:29:07.452Z,65.40
2023-04-24T05:31:36.900Z,66.50
2023-04-24T05:34:03.964Z,68.00
2023-04-24T05:36:31.985Z,69.00
2023-04-24T05:38:58.833Z,69.80
2023-04-24T05:41:26.104Z,70.30
2023-04-24T05:43:53.040Z,70.20
2023-04-24T05:46:20.013Z,71.40
2023-04-24T05:48:47.162Z,71.60
2023-04-24T05:51:14.014Z,72.20
2023-04-24T05:53:40.883Z,72.00
2023-04-24T05:56:07.805Z,69.90
2023-04-24T05:58:34.712Z,68.50
2023-04-24T06:01:03.008Z,67.30
2023-04-24T06:03:30.038Z,65.10
2023-04-24T06:05:57.119Z,64.00
2023-04-24T06:08:24.074Z,62.80
2023-04-24T06:10:51.127Z,60.30
2023-04-24T06:13:18.122Z,59.60
2023-04-24T06:15:45.291Z,60.30
2023-04-24T06:18:13.645Z,59.60
2023-04-24T06:20:41.048Z,58.50
2023-04-24T06:23:08.011Z,58.60
2023-04-24T06:25:41.157Z,58.10
2023-04-24T06:28:11.029Z,56.60
2023-04-24T06:30:37.959Z,55.40
2023-04-24T06:33:16.759Z,55.70
2023-04-24T06:35:46.809Z,56.00
2023-04-24T06:38:13.781Z,57.30
2023-04-24T06:40:40.676Z,56.90
2023-04-24T06:43:07.643Z,56.20
2023-04-24T06:45:34.792Z,56.00
2023-04-24T06:48:01.896Z,55.10
2023-04-24T06:50:28.847Z,54.10
2023-04-24T06:52:55.668Z,53.30
2023-04-24T06:55:22.555Z,52.20
2023-04-24T06:57:49.528Z,51.10
2023-04-24T07:00:17.147Z,50.10
2023-04-24T07:02:44.389Z,49.30
2023-04-24T07:05:13.949Z,50.90
2023-04-24T07:07:41.279Z,51.70
2023-04-24T07:10:09.603Z,51.50
2023-04-24T07:12:36.904Z,52.00
2023-04-24T07:15:04.309Z,51.70
2023-04-24T07:17:31.427Z,51.00
2023-04-24T07:19:58.397Z,50.60
2023-04-24T07:22:25.704Z,51.00
2023-04-24T07:24:52.669Z,51.10
2023-04-24T07:27:19.550Z,51.30
2023-04-24T07:29:46.863Z,51.00
2023-04-24T07:32:13.914Z,50.80
2023-04-24T07:34:41.076Z,51.30
2023-04-24T07:37:08.014Z,53.00
2023-04-24T07:39:35.402Z,52.80
2023-04-24T07:42:03.376Z,53.20
2023-04-24T07:44:30.249Z,52.90
2023-04-24T07:46:57.606Z,52.50
2023-04-24T07:49:25.110Z,52.40
2023-04-24T07:51:52.068Z,52.00
2023-04-24T07:54:19.098Z,53.10
2023-04-24T07:56:46.267Z,52.50
2023-04-24T07:59:13.256Z,51.80
2023-04-24T08:01:40.260Z,51.20
2023-04-24T08:04:07.295Z,50.10
2023-04-24T08:06:34.584Z,50.30
2023-04-24T08:09:01.841Z,49.50
2023-04-24T08:11:29.144Z,50.70
2023-04-24T08:13:56.167Z,51.60
2023-04-24T08:16:25.077Z,51.60
2023-04-24T08:18:52.335Z,51.80
2023-04-24T08:21:19.918Z,51.70
2023-04-24T08:23:47.050Z,51.80
2023-04-24T08:26:14.443Z,51.80
2023-04-24T08:28:41.497Z,52.80
2023-04-24T08:31:08.447Z,53.90
2023-04-24T08:33:36.054Z,54.00
2023-04-24T08:36:07.251Z,54.00
2023-04-24T08:38:35.098Z,54.00
2023-04-24T08:41:02.848Z,53.30
2023-04-24T08:43:30.207Z,53.20
2023-04-24T08:45:59.552Z,53.60
2023-04-24T08:48:31.705Z,53.20
2023-04-24T08:50:59.913Z,53.30
2023-04-24T08:53:27.694Z,52.80
2023-04-24T08:55:57.813Z,52.60
2023-04-24T08:58:27.644Z,52.50
2023-04-24T09:00:58.676Z,52.20
2023-04-24T09:03:28.258Z,52.20
2023-04-24T09:05:56.432Z,52.00
2023-04-24T09:08:26.658Z,51.40
2023-04-24T09:10:54.106Z,51.50
2023-04-24T09:13:24.372Z,52.50
2023-04-24T09:15:51.431Z,53.10
2023-04-24T09:18:18.749Z,54.70
2023-04-24T09:21:07.586Z,54.60
2023-04-24T09:23:34.625Z,55.00
2023-04-24T09:26:03.387Z,55.50
2023-04-24T09:28:38.824Z,55.80
2023-04-24T09:31:16.836Z,55.60
2023-04-24T09:33:58.074Z,55.40
2023-04-24T09:36:41.968Z,55.10
2023-04-24T09:39:17.033Z,53.10
2023-04-24T09:41:55.708Z,53.40
2023-04-24T09:44:28.040Z,51.50
2023-04-24T09:46:55.985Z,51.50
2023-04-24T09:49:31.080Z,51.30
2023-04-24T09:52:12.576Z,51.20
2023-04-24T09:54:40.634Z,50.70
2023-04-24T09:57:10.539Z,49.90
2023-04-24T09:59:45.398Z,49.60
2023-04-24T10:02:20.952Z,50.60
2023-04-24T10:04:58.135Z,50.80
2023-04-24T10:07:27.465Z,50.40
2023-04-24T10:09:54.966Z,50.20
2023-04-24T10:12:26.356Z,51.00
2023-04-24T10:14:54.357Z,51.80
2023-04-24T10:17:23.115Z,52.30
2023-04-24T10:19:50.905Z,52.10
2023-04-24T10:22:19.216Z,51.50
2023-04-24T10:24:48.477Z,52.00
2023-04-24T10:27:16.616Z,52.50
2023-04-24T10:29:45.973Z,53.10
2023-04-24T10:32:12.968Z,53.20
2023-04-24T10:34:39.920Z,53.10
2023-04-24T10:37:07.150Z,53.00
2023-04-24T10:39:40.479Z,52.70
2023-04-24T10:42:17.105Z,52.90
2023-04-24T10:44:44.111Z,53.20
2023-04-24T10:47:17.854Z,53.50
2023-04-24T10:49:44.951Z,53.70
2023-04-24T10:52:13.184Z,54.00
2023-04-24T10:54:46.579Z,54.10
2023-04-24T10:57:19.627Z,53.00
2023-04-24T10:59:48.004Z,51.80
2023-04-24T11:02:18.859Z,52.30
2023-04-24T11:04:46.792Z,52.30
2023-04-24T11:07:24.727Z,52.30
2023-04-24T11:10:02.067Z,52.60
2023-04-24T11:12:28.987Z,52.10
2023-04-24T11:14:59.581Z,52.10
2023-04-24T11:17:35.300Z,51.60
2023-04-24T11:20:26.790Z,51.80
2023-04-24T11:22:56.548Z,51.80
2023-04-24T11:25:24.194Z,51.60
2023-04-24T11:27:51.643Z,51.60
2023-04-24T11:30:20.474Z,50.60
2023-04-24T11:32:52.375Z,50.50
2023-04-24T11:35:26.110Z,50.40
2023-04-24T11:38:13.070Z,51.50
2023-04-24T11:40:41.804Z,51.50
2023-04-24T11:43:10.384Z,52.70
2023-04-24T11:45:37.627Z,53.40
2023-04-24T11:48:04.942Z,53.40
2023-04-24T11:50:32.032Z,54.10
2023-04-24T11:53:00.108Z,54.60
2023-04-24T11:55:29.518Z,55.50
2023-04-24T11:57:59.271Z,56.00
2023-04-24T12:00:30.400Z,57.50
2023-04-24T12:03:11.274Z,58.60
2023-04-24T12:05:39.716Z,59.40
2023-04-24T12:08:06.947Z,60.30
2023-04-24T12:10:35.668Z,61.10
2023-04-24T12:13:02.809Z,61.40
2023-04-24T12:15:29.886Z,61.90
2023-04-24T12:17:57.339Z,62.00
2023-04-24T12:20:32.758Z,62.10
2023-04-24T12:23:01.685Z,62.00
2023-04-24T12:25:30.592Z,61.90
2023-04-24T12:28:14.428Z,61.40
2023-04-24T12:30:47.015Z,61.50
2023-04-24T12:33:14.236Z,61.60
2023-04-24T12:35:42.110Z,61.30
2023-04-24T12:38:16.738Z,61.20
2023-04-24T12:40:45.045Z,61.70
2023-04-24T12:43:19.644Z,61.30
2023-04-24T12:45:47.375Z,60.60
2023-04-24T12:48:17.808Z,60.20
2023-04-24T12:50:47.016Z,60.40
2023-04-24T12:53:16.464Z,60.60
2023-04-24T12:55:43.582Z,60.50
2023-04-24T12:58:10.555Z,60.80
2023-04-24T13:00:38.386Z,61.20
2023-04-24T13:03:06.176Z,61.40
2023-04-24T13:05:33.434Z,61.90
2023-04-24T13:08:00.381Z,63.90
2023-04-24T13:10:27.393Z,62.90
2023-04-24T13:12:54.424Z,61.90
2023-04-24T13:15:21.397Z,61.20
2023-04-24T13:17:48.475Z,61.50
2023-04-24T13:20:15.473Z,62.10
2023-04-24T13:22:42.536Z,62.40
2023-04-24T13:25:10.222Z,62.20
2023-04-24T13:27:39.315Z,61.80
2023-04-24T13:30:06.935Z,60.70
2023-04-24T13:32:34.789Z,61.10
2023-04-24T13:35:01.882Z,60.30
2023-04-24T13:37:28.760Z,59.10
2023-04-24T13:39:55.662Z,58.60
2023-04-24T13:42:22.614Z,58.00
2023-04-24T13:44:49.529Z,57.10
2023-04-24T13:47:16.415Z,56.90
2023-04-24T13:49:43.301Z,57.00
2023-04-24T13:52:11.376Z,57.10
2023-04-24T13:54:38.299Z,57.20
2023-04-24T13:57:05.358Z,57.30
2023-04-24T13:59:32.357Z,57.60
2023-04-24T14:01:59.302Z,57.50
2023-04-24T14:04:26.629Z,57.40
2023-04-24T14:06:53.717Z,57.30
2023-04-24T14:09:20.809Z,57.50
2023-04-24T14:11:47.852Z,58.50
2023-04-24T14:14:14.800Z,59.40
2023-04-24T14:16:43.185Z,59.90
2023-04-24T14:19:10.088Z,60.60
2023-04-24T14:21:36.985Z,60.10
2023-04-24T14:24:04.101Z,59.60
2023-04-24T14:26:31.245Z,59.00
2023-04-24T14:29:11.694Z,60.20
2023-04-24T14:31:41.993Z,61.20
2023-04-24T14:34:08.946Z,62.70
2023-04-24T14:36:36.159Z,63.20
2023-04-24T14:39:07.247Z,63.10
2023-04-24T14:41:36.972Z,63.30
2023-04-24T14:44:04.753Z,63.70
2023-04-24T14:46:32.550Z,63.50
2023-04-24T14:48:59.558Z,63.70
2023-04-24T14:51:26.618Z,63.40
2023-04-24T14:53:53.720Z,63.10
2023-04-24T14:56:20.658Z,63.00
2023-04-24T14:58:47.629Z,62.90
2023-04-24T15:01:14.571Z,62.60
2023-04-24T15:03:41.570Z,62.30
2023-04-24T15:06:08.574Z,62.50
2023-04-24T15:08:35.621Z,62.40
2023-04-24T15:11:02.999Z,62.30
2023-04-24T15:13:29.943Z,62.30
2023-04-24T15:15:56.792Z,62.30
2023-04-24T15:18:23.693Z,62.60
2023-04-24T15:20:50.883Z,62.70
2023-04-24T15:23:17.740Z,62.70
2023-04-24T15:25:44.656Z,63.00
2023-04-24T15:28:11.649Z,62.70
2023-04-24T15:30:38.600Z,62.30
2023-04-24T15:33:05.805Z,62.00
2023-04-24T15:35:32.702Z,62.00
2023-04-24T15:37:59.592Z,61.90
2023-04-24T15:40:26.661Z,62.40
2023-04-24T15:42:53.499Z,62.60
2023-04-24T15:45:20.741Z,62.50
2023-04-24T15:47:47.691Z,61.20
2023-04-24T15:50:16.927Z,61.60
2023-04-24T15:52:44.401Z,61.60
2023-04-24T15:55:11.582Z,61.80
2023-04-24T15:57:38.865Z,61.70
2023-04-24T16:00:07.400Z,61.40
2023-04-24T16:02:34.741Z,61.20
2023-04-24T16:05:01.798Z,61.60
2023-04-24T16:07:28.712Z,61.60
2023-04-24T16:09:55.930Z,61.80
2023-04-24T16:12:23.008Z,62.20
2023-04-24T16:14:49.895Z,62.60
2023-04-24T16:17:16.780Z,62.60
2023-04-24T16:19:43.614Z,62.70
2023-04-24T16:22:10.625Z,62.50
2023-04-24T16:24:37.559Z,62.30
2023-04-24T16:27:04.556Z,62.60
2023-04-24T16:29:32.378Z,62.80
2023-04-24T16:31:59.422Z,62.50
2023-04-24T16:34:26.442Z,62.70
2023-04-24T16:36:53.531Z,62.80
2023-04-24T16:39:21.286Z,62.90
2023-04-24T16:41:49.778Z,63.10
2023-04-24T16:44:16.645Z,63.00
2023-04-24T16:46:43.563Z,62.80
2023-04-24T16:49:11.094Z,62.70
2023-04-24T16:51:38.076Z,62.70
2023-04-24T16:54:05.093Z,62.90
2023-04-24T16:56:32.042Z,63.40
2023-04-24T16:58:59.248Z,63.70
2023-04-24T17:01:26.306Z,63.80
2023-04-24T17:03:53.380Z,63.90
2023-04-24T17:06:20.821Z,64.20
2023-04-24T17:08:47.921Z,64.10
2023-04-24T17:11:15.085Z,64.20
2023-04-24T17:13:42.060Z,64.40
2023-04-24T17:16:09.039Z,64.60
2023-04-24T17:18:36.093Z,64.40
2023-04-24T17:21:03.018Z,64.50
2023-04-24T17:23:30.025Z,64.40
2023-04-24T17:25:56.913Z,64.80
2023-04-24T17:28:33.891Z,64.80
2023-04-24T17:31:01.116Z,65.00
2023-04-24T17:33:29.143Z,65.00
2023-04-24T17:35:56.396Z,65.40
2023-04-24T17:38:23.641Z,65.50
2023-04-24T17:40:53.130Z,65.50
2023-04-24T17:43:24.360Z,65.50
2023-04-24T17:45:53.449Z,65.60
2023-04-24T17:48:20.538Z,65.60
2023-04-24T17:50:47.512Z,65.80
2023-04-24T17:53:14.601Z,65.50
2023-04-24T17:55:46.338Z,65.50
2023-04-24T17:58:14.050Z,65.50
2023-04-24T18:00:41.649Z,65.60
2023-04-24T18:03:10.338Z,65.80
2023-04-24T18:05:39.097Z,65.90
2023-04-24T18:08:06.687Z,65.70
2023-04-24T18:10:37.473Z,65.50
2023-04-24T18:13:05.088Z,65.80
2023-04-24T18:15:32.573Z,65.80
2023-04-24T18:17:59.721Z,65.80
2023-04-24T18:20:26.942Z,65.90
2023-04-24T18:22:54.463Z,66.20
2023-04-24T18:25:26.983Z,66.30
2023-04-24T18:27:56.057Z,66.20
2023-04-24T18:30:24.299Z,66.00
2023-04-24T18:32:53.378Z,66.10
2023-04-24T18:35:21.600Z,66.50
2023-04-24T18:37:49.044Z,66.60
2023-04-24T18:40:16.754Z,66.90
2023-04-24T18:42:44.626Z,66.90
2023-04-24T18:45:14.646Z,67.00
2023-04-24T18:47:42.541Z,67.40
2023-04-24T18:50:10.198Z,67.90
2023-04-24T18:52:37.085Z,68.20
2023-04-24T18:55:04.814Z,68.50
2023-04-24T18:57:31.754Z,68.80
2023-04-24T18:59:58.749Z,68.90
2023-04-24T19:02:25.929Z,69.00
2023-04-24T19:04:52.921Z,69.20
2023-04-24T19:07:20.740Z,69.30
2023-04-24T19:09:47.956Z,69.50
2023-04-24T19:12:14.934Z,69.60
2023-04-24T19:14:41.910Z,69.80
2023-04-24T19:17:10.231Z,70.10
2023-04-24T19:19:37.187Z,70.00
2023-04-24T19:22:04.383Z,70.40
2023-04-24T19:24:33.391Z,70.80
2023-04-24T19:27:00.552Z,71.20
2023-04-24T19:29:27.715Z,71.20
2023-04-24T19:31:55.686Z,71.70
2023-04-24T19:34:22.634Z,71.70
2023-04-24T19:36:49.781Z,72.10
2023-04-24T19:39:16.695Z,72.10
2023-04-24T19:41:43.541Z,72.50
2023-04-24T19:44:10.683Z,72.50
2023-04-24T19:46:40.250Z,72.80
2023-04-24T19:49:07.400Z,72.90
2023-04-24T19:51:34.359Z,73.10
2023-04-24T19:54:01.780Z,73.00
2023-04-24T19:56:28.638Z,72.90
2023-04-24T19:58:55.526Z,73.10
2023-04-24T20:01:22.448Z,73.20
2023-04-24T20:03:49.526Z,73.30
2023-04-24T20:06:16.497Z,73.30
2023-04-24T20:08:43.335Z,73.60
2023-04-24T20:11:10.327Z,73.60
2023-04-24T20:13:37.186Z,73.50
2023-04-24T20:16:04.622Z,73.80
2023-04-24T20:18:31.698Z,73.80
2023-04-24T20:20:59.957Z,74.10
2023-04-24T20:23:27.390Z,74.80
2023-04-24T20:25:58.431Z,74.20
2023-04-24T20:28:31.816Z,74.30
2023-04-24T20:30:59.014Z,74.50
2023-04-24T20:33:28.004Z,74.30
2023-04-24T20:35:55.657Z,74.80
2023-04-24T20:38:22.887Z,74.80
2023-04-24T20:40:57.746Z,75.10
2023-04-24T20:43:28.804Z,75.50
2023-04-24T20:45:58.087Z,75.80
2023-04-24T20:48:26.233Z,76.50
2023-04-24T20:50:56.147Z,76.80
2023-04-24T20:53:23.265Z,77.00
2023-04-24T20:55:50.442Z,77.30
2023-04-24T20:58:18.758Z,77.20
2023-04-24T21:00:47.012Z,77.40
2023-04-24T21:03:14.326Z,77.60
2023-04-24T21:05:41.389Z,78.10
2023-04-24T21:08:08.414Z,78.10
2023-04-24T21:10:35.478Z,78.50
2023-04-24T21:13:02.400Z,78.90
2023-04-24T21:15:29.534Z,78.90
2023-04-24T21:17:56.903Z,79.20
2023-04-24T21:20:25.281Z,79.70
2023-04-24T21:22:52.376Z,80.70
2023-04-24T21:25:19.369Z,81.30
2023-04-24T21:27:46.290Z,81.90
2023-04-24T21:30:13.709Z,82.30
2023-04-24T21:32:40.750Z,82.40
2023-04-24T21:35:08.883Z,82.50
2023-04-24T21:37:36.899Z,83.00
2023-04-24T21:40:05.061Z,83.20
2023-04-24T21:42:32.060Z,83.20
2023-04-24T21:44:59.372Z,83.60
2023-04-24T21:47:26.349Z,83.80
2023-04-24T21:49:53.261Z,83.70
2023-04-24T21:52:20.302Z,83.70
2023-04-24T21:54:47.201Z,83.90
2023-04-24T21:57:14.206Z,84.00
2023-04-24T21:59:41.172Z,84.50
2023-04-24T22:02:08.168Z,85.40
2023-04-24T22:04:35.102Z,84.70
2023-04-24T22:07:02.076Z,84.90
2023-04-24T22:09:29.070Z,85.60
2023-04-24T22:11:55.963Z,86.00
2023-04-24T22:14:22.849Z,85.90
2023-04-24T22:16:50.363Z,86.00
2023-04-24T22:19:17.313Z,86.40
2023-04-24T22:21:44.530Z,86.10
2023-04-24T22:24:11.493Z,86.50
2023-04-24T22:26:38.520Z,86.90
2023-04-24T22:29:05.409Z,87.20
2023-04-24T22:31:36.548Z,87.90
2023-04-24T22:34:03.685Z,88.30
2023-04-24T22:36:31.703Z,88.10
2023-04-24T22:38:58.996Z,88.50
2023-04-24T22:41:26.245Z,88.50
2023-04-24T22:43:53.164Z,88.50
2023-04-24T22:46:20.109Z,88.10
2023-04-24T22:48:49.192Z,88.00
2023-04-24T22:51:18.238Z,88.00
2023-04-24T22:53:45.374Z,87.90
2023-04-24T22:56:12.360Z,87.90
2023-04-24T22:58:39.332Z,88.10
2023-04-24T23:01:06.391Z,88.10
2023-04-24T23:03:33.726Z,88.40
2023-04-24T23:06:00.711Z,88.50
2023-04-24T23:08:27.605Z,89.00
2023-04-24T23:10:54.582Z,89.50
2023-04-24T23:13:21.506Z,89.30
2023-04-24T23:15:48.981Z,90.00
2023-04-24T23:18:15.853Z,90.00
2023-04-24T23:20:42.771Z,89.70
2023-04-24T23:23:09.975Z,89.70
2023-04-24T23:25:37.093Z,89.60
2023-04-24T23:28:04.014Z,90.00
2023-04-24T23:30:31.095Z,90.10
2023-04-24T23:32:58.055Z,90.10
2023-04-24T23:35:25.901Z,90.20
2023-04-24T23:37:53.207Z,90.30
2023-04-24T23:40:20.177Z,90.70
2023-04-24T23:42:53.960Z,90.50
2023-04-24T23:45:26.861Z,90.40
2023-04-24T23:47:53.789Z,90.40
2023-04-24T23:50:20.846Z,90.30
2023-04-24T23:52:47.765Z,90.30
2023-04-24T23:55:14.698Z,90.80
2023-04-24T23:57:42.053Z,90.80
